createdAt,value
2019-02-19T00:03:57.033Z,4.27
2019-02-19T00:08:41.667Z,3.90
2019-02-19T00:13:26.565Z,3.80
2019-02-19T00:18:11.308Z,4.50
2019-02-19T00:22:56.014Z,4.97
2019-02-19T00:27:43.070Z,5.67
2019-02-19T00:32:27.972Z,5.17
2019-02-19T00:37:12.467Z,4.60
2019-02-19T00:41:57.169Z,5.20
2019-02-19T00:46:44.575Z,5.17
2019-02-19T00:51:30.996Z,5.07
2019-02-19T00:56:15.627Z,5.20
2019-02-19T01:01:00.431Z,4.80
2019-02-19T01:05:45.209Z,4.83
2019-02-19T01:10:29.791Z,4.97
2019-02-19T01:15:14.657Z,4.93
2019-02-19T01:19:59.219Z,4.77
2019-02-19T01:24:44.133Z,5.03
2019-02-19T01:29:28.634Z,5.03
2019-02-19T01:34:13.373Z,5.13
2019-02-19T01:38:58.147Z,5.00
2019-02-19T01:43:42.646Z,5.00
2019-02-19T01:48:27.438Z,4.43
2019-02-19T01:53:11.940Z,4.87
2019-02-19T01:57:56.564Z,5.67
2019-02-19T02:02:41.240Z,4.67
2019-02-19T02:07:25.850Z,4.47
2019-02-19T02:12:10.651Z,4.30
2019-02-19T02:16:55.239Z,4.17
2019-02-19T02:21:39.729Z,3.80
2019-02-19T02:26:24.220Z,3.57
2019-02-19T02:31:08.839Z,3.50
2019-02-19T02:35:53.335Z,3.50
2019-02-19T02:40:37.841Z,2.87
2019-02-19T02:45:22.340Z,3.20
2019-02-19T02:50:06.983Z,3.90
2019-02-19T02:54:51.508Z,3.47
2019-02-19T02:59:36.184Z,4.00
2019-02-19T03:04:20.711Z,4.33
2019-02-19T03:09:05.710Z,3.57
2019-02-19T03:13:50.384Z,3.40
2019-02-19T03:18:35.008Z,2.80
2019-02-19T03:23:19.628Z,2.90
2019-02-19T03:28:04.215Z,2.57
2019-02-19T03:32:48.715Z,2.57
2019-02-19T03:37:33.456Z,2.90
2019-02-19T03:42:17.921Z,2.90
2019-02-19T03:47:02.464Z,2.70
2019-02-19T03:51:46.964Z,2.40
2019-02-19T03:56:31.493Z,2.40
2019-02-19T04:01:16.000Z,2.77
2019-02-19T04:06:00.735Z,2.70
2019-02-19T04:10:45.416Z,2.63
2019-02-19T04:15:29.936Z,3.10
2019-02-19T04:20:14.474Z,3.60
2019-02-19T04:24:59.072Z,2.93
2019-02-19T04:29:43.546Z,3.50
2019-02-19T04:34:28.003Z,4.10
2019-02-19T04:39:12.570Z,3.77
2019-02-19T04:43:59.321Z,4.17
2019-02-19T04:48:43.794Z,4.23
2019-02-19T04:53:28.308Z,4.57
2019-02-19T04:58:12.811Z,4.60
2019-02-19T05:02:57.438Z,4.40
2019-02-19T05:07:42.068Z,4.00
2019-02-19T05:12:26.663Z,4.57
2019-02-19T05:17:11.149Z,4.47
2019-02-19T05:21:55.727Z,4.20
2019-02-19T05:26:40.228Z,4.30
2019-02-19T05:31:24.849Z,3.97
2019-02-19T05:36:09.329Z,4.40
2019-02-19T05:40:53.818Z,4.23
2019-02-19T05:45:38.407Z,4.13
2019-02-19T05:50:23.047Z,4.77
2019-02-19T05:55:07.601Z,4.13
2019-02-19T05:59:52.086Z,4.20
2019-02-19T06:04:36.678Z,4.97
2019-02-19T06:09:21.285Z,4.83
2019-02-19T06:14:05.842Z,4.43
2019-02-19T06:18:50.349Z,4.73
2019-02-19T06:23:34.930Z,4.80
2019-02-19T06:28:19.412Z,4.40
2019-02-19T06:33:03.920Z,4.53
2019-02-19T06:37:48.546Z,4.40
2019-02-19T06:42:33.039Z,4.30
2019-02-19T06:47:17.965Z,4.63
2019-02-19T06:52:02.393Z,4.50
2019-02-19T06:56:47.492Z,4.67
2019-02-19T07:01:52.541Z,4.27
2019-02-19T07:06:37.216Z,4.67
2019-02-19T07:11:21.934Z,4.13
2019-02-19T07:16:06.536Z,4.40
2019-02-19T07:20:51.068Z,4.47
2019-02-19T07:25:35.646Z,4.57
2019-02-19T07:30:20.256Z,4.43
2019-02-19T07:35:04.982Z,4.53
2019-02-19T07:39:49.652Z,4.47
2019-02-19T07:44:34.141Z,4.70
2019-02-19T07:49:18.663Z,4.53
2019-02-19T07:54:03.212Z,4.70
2019-02-19T07:58:47.729Z,5.83
2019-02-19T08:03:32.195Z,4.70
2019-02-19T08:08:16.939Z,4.97
2019-02-19T08:13:01.521Z,4.50
2019-02-19T08:17:46.104Z,4.73
2019-02-19T08:22:38.216Z,5.30
2019-02-19T08:27:23.044Z,4.83
2019-02-19T08:32:07.745Z,4.87
2019-02-19T08:36:52.256Z,4.63
2019-02-19T08:41:36.844Z,4.57
2019-02-19T08:46:21.377Z,4.37
2019-02-19T08:51:05.930Z,5.00
2019-02-19T08:55:50.491Z,5.33
2019-02-19T09:00:35.126Z,6.20
2019-02-19T09:05:19.641Z,6.53
2019-02-19T09:10:04.328Z,6.20
2019-02-19T09:14:49.427Z,7.07
2019-02-19T09:19:33.951Z,6.50
2019-02-19T09:24:18.877Z,6.77
2019-02-19T09:29:03.405Z,7.37
2019-02-19T09:33:48.029Z,6.73
2019-02-19T09:38:32.704Z,6.70
2019-02-19T09:43:17.173Z,6.97
2019-02-19T09:48:01.784Z,6.87
2019-02-19T09:52:46.343Z,5.90
2019-02-19T09:57:32.699Z,6.07
2019-02-19T10:02:17.104Z,5.90
2019-02-19T10:07:01.641Z,5.60
2019-02-19T10:11:46.419Z,5.33
2019-02-19T10:16:41.178Z,6.00
2019-02-19T10:21:19.151Z,5.67
2019-02-19T10:26:03.712Z,5.40
2019-02-19T10:30:48.331Z,5.20
2019-02-19T10:35:32.846Z,5.57
2019-02-19T10:40:17.524Z,5.33
2019-02-19T10:45:02.144Z,5.23
2019-02-19T10:49:46.661Z,5.13
2019-02-19T10:54:31.240Z,5.40
2019-02-19T10:59:15.747Z,5.63
2019-02-19T11:04:03.370Z,5.37
2019-02-19T11:08:47.847Z,5.30
2019-02-19T11:13:32.456Z,5.20
2019-02-19T11:18:16.994Z,4.77
2019-02-19T11:23:01.567Z,5.00
2019-02-19T11:27:46.145Z,4.70
2019-02-19T11:32:30.652Z,5.67
2019-02-19T11:37:15.243Z,6.27
2019-02-19T11:41:59.832Z,6.47
2019-02-19T11:46:44.541Z,6.00
2019-02-19T11:51:29.101Z,6.57
2019-02-19T11:56:13.672Z,6.47
2019-02-19T12:00:58.338Z,7.00
2019-02-19T12:05:42.918Z,8.20
2019-02-19T12:10:27.484Z,9.03
2019-02-19T12:15:12.107Z,9.63
2019-02-19T12:19:56.659Z,9.87
2019-02-19T12:24:41.219Z,9.30
2019-02-19T12:29:25.848Z,10.90
2019-02-19T12:34:10.467Z,9.10
2019-02-19T12:38:54.967Z,10.33
2019-02-19T12:43:39.647Z,9.77
2019-02-19T12:48:24.230Z,9.63
2019-02-19T12:53:08.887Z,10.40
2019-02-19T12:57:53.379Z,10.10
2019-02-19T13:02:37.833Z,10.03
2019-02-19T13:07:22.438Z,11.37
2019-02-19T13:12:06.983Z,11.27
2019-02-19T13:16:51.669Z,11.30
2019-02-19T13:21:36.211Z,11.30
2019-02-19T13:26:20.845Z,12.67
2019-02-19T13:31:05.338Z,12.60
2019-02-19T13:35:50.730Z,13.00
2019-02-19T13:40:35.471Z,12.00
2019-02-19T13:45:20.083Z,12.20
2019-02-19T13:50:04.681Z,12.03
2019-02-19T13:55:11.336Z,12.70
2019-02-19T14:00:12.423Z,12.50
2019-02-19T14:04:54.511Z,9.97
2019-02-19T14:09:39.150Z,8.77
2019-02-19T14:14:51.946Z,8.70
2019-02-19T14:19:43.171Z,8.30
2019-02-19T14:24:49.877Z,7.60
2019-02-19T14:30:07.334Z,6.80
2019-02-19T14:35:12.403Z,7.20
2019-02-19T14:40:14.719Z,7.60
2019-02-19T14:45:08.807Z,8.37
2019-02-19T14:50:27.318Z,10.13
2019-02-19T14:55:43.299Z,9.03
2019-02-19T15:00:50.058Z,9.00
2019-02-19T15:06:08.801Z,8.30
2019-02-19T15:11:28.520Z,8.80
2019-02-19T15:16:23.684Z,6.67
2019-02-19T15:21:39.222Z,6.80
2019-02-19T15:26:52.139Z,6.17
2019-02-19T15:31:54.354Z,7.50
2019-02-19T15:37:02.542Z,6.47
2019-02-19T15:42:09.115Z,4.73
2019-02-19T15:47:09.212Z,4.37
2019-02-19T15:52:11.247Z,4.00
2019-02-19T15:57:04.791Z,3.93
2019-02-19T16:02:05.152Z,4.10
2019-02-19T16:06:54.395Z,4.10
2019-02-19T16:12:03.075Z,3.53
2019-02-19T16:17:17.732Z,3.93
2019-02-19T16:22:09.386Z,4.40
2019-02-19T16:27:12.818Z,4.13
2019-02-19T16:32:19.063Z,4.57
2019-02-19T16:37:09.780Z,5.20
2019-02-19T16:42:13.515Z,5.27
2019-02-19T16:47:11.334Z,6.07
2019-02-19T16:52:14.837Z,5.80
2019-02-19T16:57:14.881Z,6.67
2019-02-19T17:02:24.930Z,6.13
2019-02-19T17:07:25.563Z,7.13
2019-02-19T17:12:20.294Z,7.30
2019-02-19T17:17:22.577Z,8.00
2019-02-19T17:22:20.367Z,7.10
2019-02-19T17:27:17.107Z,8.03
2019-02-19T17:32:38.893Z,7.80
2019-02-19T17:37:42.653Z,7.30
2019-02-19T17:42:49.150Z,7.90
2019-02-19T17:48:00.467Z,7.93
2019-02-19T17:53:02.464Z,8.40
2019-02-19T17:58:12.118Z,8.07
2019-02-19T18:03:18.752Z,8.47
2019-02-19T18:08:25.319Z,8.77
2019-02-19T18:13:37.965Z,8.30
2019-02-19T18:18:40.291Z,8.23
2019-02-19T18:23:25.346Z,8.87
2019-02-19T18:28:09.920Z,8.60
2019-02-19T18:32:54.640Z,11.83
2019-02-19T18:37:39.394Z,9.10
2019-02-19T18:42:24.290Z,9.67
2019-02-19T18:47:09.197Z,9.73
2019-02-19T18:51:54.036Z,9.60
2019-02-19T18:56:38.941Z,10.30
2019-02-19T19:01:23.575Z,9.93
2019-02-19T19:06:18.248Z,9.43
2019-02-19T19:11:01.766Z,8.93
2019-02-19T19:15:46.855Z,9.57
2019-02-19T19:20:31.852Z,9.13
2019-02-19T19:25:16.789Z,8.80
2019-02-19T19:30:01.755Z,8.77
2019-02-19T19:34:46.752Z,8.33
2019-02-19T19:39:31.678Z,8.90
2019-02-19T19:44:16.532Z,7.50
2019-02-19T19:49:01.448Z,8.83
2019-02-19T19:53:46.466Z,8.93
2019-02-19T19:58:32.575Z,6.97
2019-02-19T20:03:18.096Z,8.07
2019-02-19T20:08:03.004Z,7.70
2019-02-19T20:12:47.875Z,8.07
2019-02-19T20:17:35.794Z,7.73
2019-02-19T20:22:23.858Z,6.93
2019-02-19T20:27:10.752Z,7.30
2019-02-19T20:32:00.313Z,7.40
2019-02-19T20:36:45.314Z,9.23
2019-02-19T20:41:30.170Z,7.40
2019-02-19T20:46:15.090Z,8.60
2019-02-19T20:51:00.141Z,8.37
2019-02-19T20:55:45.364Z,9.43
2019-02-19T21:00:30.186Z,8.93
2019-02-19T21:05:17.238Z,8.47
2019-02-19T21:10:02.457Z,8.53
2019-02-19T21:14:47.648Z,8.50
2019-02-19T21:19:32.797Z,8.90
2019-02-19T21:24:17.751Z,9.03
2019-02-19T21:29:02.630Z,8.97
2019-02-19T21:33:47.856Z,8.60
2019-02-19T21:38:32.942Z,8.83
2019-02-19T21:43:18.126Z,9.40
2019-02-19T21:48:03.054Z,9.23
2019-02-19T21:52:47.844Z,9.00
2019-02-19T21:57:33.169Z,9.53
2019-02-19T22:02:21.651Z,8.23
2019-02-19T22:07:07.074Z,8.80
2019-02-19T22:11:51.959Z,8.83
2019-02-19T22:16:37.114Z,9.00
2019-02-19T22:21:49.913Z,9.87
2019-02-19T22:26:35.260Z,10.13
2019-02-19T22:31:20.345Z,10.00
2019-02-19T22:36:05.555Z,10.57
2019-02-19T22:40:55.448Z,9.47
2019-02-19T22:45:40.396Z,10.30
2019-02-19T22:50:25.702Z,10.43
2019-02-19T22:55:16.621Z,10.50
2019-02-19T23:00:01.468Z,10.23
2019-02-19T23:04:46.370Z,9.53
2019-02-19T23:09:31.250Z,10.23
2019-02-19T23:14:15.888Z,10.00
2019-02-19T23:19:01.447Z,9.67
2019-02-19T23:23:46.739Z,10.10
2019-02-19T23:28:36.142Z,9.83
2019-02-19T23:33:21.452Z,10.33
2019-02-19T23:38:06.501Z,10.30
2019-02-19T23:42:51.626Z,11.27
2019-02-19T23:47:36.487Z,10.37
2019-02-19T23:52:30.279Z,10.03
2019-02-19T23:57:11.016Z,9.87
